Time;durP1;ratioP1;P1;durP2;ratioP2;P2;SDS_P1;SDS_P2;PMS_P1;PMS_P2;Temp;Humidity;BMP_temperature;BMP_pressure;BME280_temperature;BME280_humidity;BME280_pressure;Samples;Min_cycle;Max_cycle;Signal;HPM_P1;HPM_P2
2022/08/25 00:01:01;;;;;;;11.57;10.48;;;21.00;99.90;;;;;;5073649;28;20484;-73
2022/08/25 00:03:27;;;;;;;11.13;10.07;;;21.00;99.90;;;;;;5073165;28;20040;-74
2022/08/25 00:05:52;;;;;;;11.35;9.85;;;21.00;99.90;;;;;;5073405;28;20044;-73
2022/08/25 00:08:18;;;;;;;10.40;9.35;;;21.00;99.90;;;;;;5072451;28;20044;-73
2022/08/25 00:10:44;;;;;;;16.08;10.10;;;20.90;99.90;;;;;;5072390;28;20075;-73
2022/08/25 00:13:10;;;;;;;12.10;8.57;;;20.90;99.90;;;;;;5073337;28;20039;-73
2022/08/25 00:15:37;;;;;;;14.07;8.18;;;20.80;99.90;;;;;;5072628;28;20131;-73
2022/08/25 00:18:04;;;;;;;11.43;7.30;;;20.80;99.90;;;;;;5072947;28;20083;-72
2022/08/25 00:20:30;;;;;;;10.25;7.15;;;20.80;99.90;;;;;;5073014;28;20064;-73
2022/08/25 00:22:57;;;;;;;9.15;7.15;;;20.70;99.90;;;;;;5071247;28;20040;-73
2022/08/25 00:25:23;;;;;;;12.23;7.35;;;20.70;99.90;;;;;;5055141;28;20044;-73
2022/08/25 00:27:50;;;;;;;8.90;7.28;;;20.70;99.90;;;;;;5072675;28;20048;-73
2022/08/25 00:30:16;;;;;;;7.85;6.10;;;20.70;99.90;;;;;;5072245;28;20439;-73
2022/08/25 00:32:41;;;;;;;9.93;6.93;;;20.70;99.90;;;;;;5073476;28;20045;-73
2022/08/25 00:35:07;;;;;;;7.15;6.13;;;20.70;99.90;;;;;;5072818;28;20055;-73
2022/08/25 00:37:35;;;;;;;7.55;5.88;;;20.60;99.90;;;;;;5071816;28;20076;-73
2022/08/25 00:40:01;;;;;;;11.32;5.95;;;20.60;99.90;;;;;;5071673;28;20041;-73
2022/08/25 00:42:27;;;;;;;12.65;6.30;;;20.60;99.90;;;;;;5072656;28;20483;-73
2022/08/25 00:44:53;;;;;;;7.80;5.57;;;20.90;99.90;;;;;;5072204;28;20098;-74
2022/08/25 00:47:18;;;;;;;11.20;5.78;;;20.60;99.90;;;;;;5071081;28;20040;-74
2022/08/25 00:49:49;;;;;;;6.82;4.90;;;20.60;99.90;;;;;;5072237;28;20048;-72
2022/08/25 00:52:30;;;;;;;7.80;4.95;;;20.60;99.90;;;;;;5070607;28;20058;-73
2022/08/25 00:55:07;;;;;;;5.53;4.93;;;20.50;99.90;;;;;;5072688;28;20051;-72
2022/08/25 00:57:38;;;;;;;8.02;5.75;;;20.50;99.90;;;;;;5070148;28;20040;-73
2022/08/25 01:00:10;;;;;;;9.40;4.85;;;20.70;99.90;;;;;;5064728;28;20040;-72
2022/08/25 01:02:36;;;;;;;9.15;4.63;;;20.50;99.90;;;;;;5072343;28;20120;-73
2022/08/25 01:05:02;;;;;;;6.50;4.70;;;20.60;99.90;;;;;;5071644;28;20486;-72
2022/08/25 01:07:28;;;;;;;9.95;4.20;;;20.50;99.90;;;;;;5070642;28;20048;-72
2022/08/25 01:09:54;;;;;;;6.03;5.25;;;21.00;99.90;;;;;;5070687;28;20052;-72
2022/08/25 01:12:21;;;;;;;4.03;3.70;;;20.80;99.90;;;;;;5071595;28;20094;-72
2022/08/25 01:14:48;;;;;;;7.25;4.25;;;20.50;99.90;;;;;;5070649;28;20047;-72
2022/08/25 01:17:15;;;;;;;8.65;4.82;;;20.50;99.90;;;;;;5071782;28;20396;-72
2022/08/25 01:19:40;;;;;;;6.63;4.03;;;20.50;99.90;;;;;;5053252;28;20036;-72
2022/08/25 01:22:06;;;;;;;10.00;4.72;;;20.50;99.90;;;;;;5070701;28;20047;-73
2022/08/25 01:24:58;;;;;;;7.55;4.30;;;21.10;99.90;;;;;;5072002;28;20041;-72
2022/08/25 01:27:24;;;;;;;5.90;4.40;;;20.40;99.90;;;;;;5065766;28;20051;-74
2022/08/25 01:29:49;;;;;;;6.15;4.43;;;20.40;99.90;;;;;;5071587;28;20431;-73
2022/08/25 01:32:15;;;;;;;6.03;3.92;;;20.40;99.90;;;;;;5071604;28;20492;-73
2022/08/25 01:34:43;;;;;;;5.68;4.15;;;20.40;99.90;;;;;;5071299;28;20125;-72
2022/08/25 01:37:11;;;;;;;5.78;4.10;;;20.30;99.90;;;;;;5071493;28;20339;-73
2022/08/25 01:39:37;;;;;;;5.93;4.38;;;20.30;99.90;;;;;;5070960;28;20032;-73
2022/08/25 01:42:07;;;;;;;8.25;3.75;;;20.30;99.90;;;;;;5071712;28;20052;-74
2022/08/25 01:44:36;;;;;;;7.53;3.17;;;20.30;99.90;;;;;;5071531;28;20048;-73
2022/08/25 01:47:03;;;;;;;8.25;3.72;;;20.40;99.90;;;;;;5070739;28;20036;-73
2022/08/25 01:49:29;;;;;;;4.05;3.45;;;20.20;99.90;;;;;;5070543;28;20036;-74
2022/08/25 01:52:00;;;;;;;8.70;4.28;;;20.20;99.90;;;;;;5071598;28;20408;-73
2022/08/25 01:54:25;;;;;;;6.30;3.83;;;20.20;99.90;;;;;;5070591;28;20032;-73
2022/08/25 01:56:51;;;;;;;5.32;3.30;;;20.20;99.90;;;;;;5071040;28;20055;-74
2022/08/25 01:59:19;;;;;;;5.05;3.47;;;20.20;99.90;;;;;;5071200;28;20396;-74
2022/08/25 02:01:44;;;;;;;6.18;3.60;;;20.70;99.90;;;;;;5069592;28;20054;-73
2022/08/25 02:04:11;;;;;;;6.03;3.50;;;20.20;99.90;;;;;;5071262;28;20131;-72
2022/08/25 02:06:37;;;;;;;3.67;3.38;;;20.80;99.90;;;;;;5069985;28;20037;-73
2022/08/25 02:09:08;;;;;;;6.65;3.42;;;20.20;99.90;;;;;;5070371;28;20480;-74
2022/08/25 02:11:36;;;;;;;3.90;3.35;;;20.10;99.90;;;;;;5071676;28;20044;-74
2022/08/25 02:14:02;;;;;;;5.93;3.83;;;20.10;99.90;;;;;;5070920;28;20090;-73
2022/08/25 02:16:32;;;;;;;5.78;3.65;;;20.00;99.90;;;;;;5069243;28;20076;-73
2022/08/25 02:18:58;;;;;;;9.43;3.72;;;20.50;99.90;;;;;;5070700;28;20106;-73
2022/08/25 02:21:24;;;;;;;7.47;3.47;;;20.00;99.90;;;;;;5070901;28;20484;-73
2022/08/25 02:23:49;;;;;;;5.30;3.47;;;20.30;99.90;;;;;;5068932;28;20083;-73
2022/08/25 02:26:17;;;;;;;6.97;3.65;;;20.00;99.90;;;;;;5070848;28;20166;-73
2022/08/25 02:28:44;;;;;;;8.30;3.50;;;20.00;99.90;;;;;;5070107;28;20098;-73
2022/08/25 02:31:11;;;;;;;7.53;3.22;;;20.00;99.90;;;;;;5069517;28;20090;-74
2022/08/25 02:33:37;;;;;;;5.00;3.25;;;20.10;99.90;;;;;;5069450;28;20044;-74
2022/08/25 02:36:03;;;;;;;5.45;3.92;;;19.90;99.90;;;;;;5068886;28;20043;-72
2022/08/25 02:38:29;;;;;;;5.05;3.88;;;19.90;99.90;;;;;;5070445;28;20044;-73
2022/08/25 02:40:56;;;;;;;7.97;3.80;;;20.10;99.90;;;;;;5069665;28;20070;-74
2022/08/25 02:43:22;;;;;;;9.30;4.50;;;19.90;99.90;;;;;;5070089;28;20048;-73
2022/08/25 02:45:47;;;;;;;6.28;4.90;;;19.80;99.90;;;;;;5069463;28;20043;-73
2022/08/25 02:48:13;;;;;;;9.40;5.13;;;19.90;99.90;;;;;;5070608;28;20044;-73
2022/08/25 02:50:39;;;;;;;6.63;5.07;;;19.90;99.90;;;;;;5070232;28;20044;-73
2022/08/25 02:53:04;;;;;;;6.32;5.28;;;19.80;99.90;;;;;;5070714;28;20032;-74
2022/08/25 02:55:30;;;;;;;7.50;5.75;;;19.70;99.90;;;;;;5070579;28;20131;-72
2022/08/25 02:57:56;;;;;;;7.65;6.20;;;20.10;99.90;;;;;;5070337;28;20048;-73
2022/08/25 03:00:21;;;;;;;7.72;6.30;;;19.70;99.90;;;;;;5069900;28;20036;-74
2022/08/25 03:02:47;;;;;;;7.13;6.43;;;19.70;99.90;;;;;;5074837;28;20116;-73
2022/08/25 03:05:14;;;;;;;11.88;5.95;;;19.70;99.90;;;;;;5074162;28;20036;-73
2022/08/25 03:07:40;;;;;;;17.95;7.10;;;20.00;99.90;;;;;;5074229;28;20086;-73
2022/08/25 03:10:13;;;;;;;9.77;6.93;;;19.60;99.90;;;;;;5074352;28;20079;-74
2022/08/25 03:12:40;;;;;;;10.00;6.78;;;19.60;99.90;;;;;;5073736;28;20103;-73
2022/08/25 03:15:08;;;;;;;14.05;6.95;;;20.00;99.90;;;;;;5074152;28;20551;-73
2022/08/25 03:17:33;;;;;;;7.35;6.25;;;19.60;99.90;;;;;;5074276;28;20080;-73
2022/08/25 03:19:59;;;;;;;10.43;6.47;;;19.60;99.90;;;;;;5073751;28;20170;-73
2022/08/25 03:22:25;;;;;;;10.27;6.32;;;19.50;99.90;;;;;;5074403;28;20050;-73
2022/08/25 03:24:50;;;;;;;7.63;5.80;;;19.50;99.90;;;;;;5074235;28;20047;-73
2022/08/25 03:27:16;;;;;;;9.10;6.25;;;19.50;99.90;;;;;;5071877;28;20052;-74
2022/08/25 03:29:42;;;;;;;9.55;5.60;;;19.50;99.90;;;;;;5072992;28;20121;-74
2022/08/25 03:32:08;;;;;;;8.23;5.60;;;19.50;99.90;;;;;;5072167;28;20033;-73
2022/08/25 03:34:34;;;;;;;7.50;5.40;;;19.80;99.90;;;;;;5074415;28;20410;-73
2022/08/25 03:36:59;;;;;;;8.32;5.63;;;20.10;99.90;;;;;;5074056;28;20040;-73
2022/08/25 03:39:26;;;;;;;10.80;4.57;;;19.40;99.90;;;;;;5073170;28;20047;-72
2022/08/25 03:41:52;;;;;;;13.50;5.00;;;19.40;99.90;;;;;;5074062;28;20201;-73
2022/08/25 03:44:20;;;;;;;6.97;4.75;;;19.40;99.90;;;;;;5074267;28;20078;-72
2022/08/25 03:46:49;;;;;;;11.05;5.05;;;19.50;99.90;;;;;;5073224;28;20492;-72
2022/08/25 03:49:19;;;;;;;7.53;5.10;;;19.40;99.90;;;;;;5074087;28;20119;-72
2022/08/25 03:51:48;;;;;;;5.85;4.45;;;19.40;99.90;;;;;;5072788;28;20045;-73
2022/08/25 03:54:16;;;;;;;11.38;5.15;;;19.30;99.90;;;;;;5065446;28;20155;-73
2022/08/25 03:56:41;;;;;;;7.25;5.07;;;19.20;99.90;;;;;;5073447;28;20090;-74
2022/08/25 03:59:08;;;;;;;10.95;4.88;;;19.60;99.90;;;;;;5073791;28;20044;-74
2022/08/25 04:01:38;;;;;;;9.23;4.97;;;19.50;99.90;;;;;;5073211;28;20055;-74
2022/08/25 04:04:05;;;;;;;9.95;4.55;;;19.10;99.90;;;;;;5072357;28;20544;-74
2022/08/25 04:06:32;;;;;;;10.07;4.75;;;19.10;99.90;;;;;;5073383;28;20105;-75
2022/08/25 04:08:57;;;;;;;6.95;4.30;;;19.10;99.90;;;;;;5072919;28;20441;-74
2022/08/25 04:11:25;;;;;;;5.72;4.38;;;19.10;99.90;;;;;;5072339;28;20123;-74
2022/08/25 04:13:51;;;;;;;10.30;4.80;;;19.10;99.90;;;;;;5072686;28;20044;-74
2022/08/25 04:16:22;;;;;;;10.30;4.50;;;19.50;99.90;;;;;;5073052;28;20040;-73
2022/08/25 04:18:49;;;;;;;7.00;4.38;;;19.00;99.90;;;;;;5071820;28;20045;-74
2022/08/25 04:21:16;;;;;;;6.72;4.40;;;19.00;99.90;;;;;;5073724;28;20100;-74
2022/08/25 04:23:44;;;;;;;10.10;4.20;;;19.00;99.90;;;;;;5073428;28;20056;-73
2022/08/25 04:26:36;;;;;;;9.50;4.20;;;19.20;99.90;;;;;;5073096;28;20484;-73
2022/08/25 04:29:05;;;;;;;6.13;4.22;;;18.90;99.90;;;;;;5060046;28;20057;-75
2022/08/25 04:31:32;;;;;;;7.30;4.60;;;18.90;99.90;;;;;;5055130;28;20507;-73
2022/08/25 04:34:04;;;;;;;11.18;4.40;;;19.30;99.90;;;;;;5073073;28;20082;-74
2022/08/25 04:36:31;;;;;;;11.15;4.40;;;18.90;99.90;;;;;;5072099;28;20044;-73
2022/08/25 04:38:57;;;;;;;7.13;4.60;;;18.80;99.90;;;;;;5071549;28;20097;-74
2022/08/25 04:41:24;;;;;;;6.82;4.55;;;18.80;99.90;;;;;;5054873;28;20037;-74
2022/08/25 04:43:50;;;;;;;5.75;4.63;;;19.00;99.90;;;;;;5070749;28;20190;-73
2022/08/25 04:46:21;;;;;;;7.93;5.75;;;18.80;99.90;;;;;;5072925;28;20521;-72
2022/08/25 04:48:49;;;;;;;7.60;5.85;;;18.80;99.90;;;;;;5071438;28;20500;-72
2022/08/25 04:51:19;;;;;;;11.68;6.45;;;18.80;99.90;;;;;;5072096;28;20032;-74
2022/08/25 04:53:45;;;;;;;7.32;6.25;;;19.40;99.90;;;;;;5071696;28;20043;-73
2022/08/25 04:56:13;;;;;;;9.80;6.55;;;17.90;99.90;;;;;;5072843;28;20044;-72
2022/08/25 04:58:40;;;;;;;8.88;6.07;;;18.70;99.90;;;;;;5071617;28;20098;-72
2022/08/25 05:01:07;;;;;;;14.25;7.03;;;17.80;99.90;;;;;;5072630;28;20131;-72
2022/08/25 05:03:34;;;;;;;9.65;6.38;;;18.70;99.90;;;;;;5070562;28;20049;-72
2022/08/25 05:06:00;;;;;;;9.38;6.78;;;18.70;99.90;;;;;;5072376;28;20041;-73
2022/08/25 05:08:26;;;;;;;9.20;6.47;;;18.70;99.90;;;;;;5072217;28;20052;-73
2022/08/25 05:10:53;;;;;;;9.32;7.10;;;18.70;99.90;;;;;;5071902;28;20048;-74
2022/08/25 05:13:20;;;;;;;8.75;6.13;;;18.70;99.90;;;;;;5071221;28;20042;-73
2022/08/25 05:15:56;;;;;;;7.18;5.93;;;18.60;99.90;;;;;;5072242;28;20056;-72
2022/08/25 05:18:23;;;;;;;9.52;6.15;;;18.70;99.90;;;;;;5063691;28;20117;-74
2022/08/25 05:20:52;;;;;;;8.93;5.95;;;19.40;99.90;;;;;;5072062;28;20037;-73
2022/08/25 05:23:19;;;;;;;8.50;5.00;;;18.70;99.90;;;;;;5064112;28;20052;-73
2022/08/25 05:25:45;;;;;;;8.32;5.43;;;18.70;99.90;;;;;;5070281;28;20044;-74
2022/08/25 05:28:10;;;;;;;8.60;4.93;;;18.70;99.90;;;;;;5070380;28;20273;-73
2022/08/25 05:30:40;;;;;;;14.40;5.40;;;18.70;99.90;;;;;;5072144;28;20044;-74
2022/08/25 05:33:07;;;;;;;8.18;5.90;;;18.70;99.90;;;;;;5071292;28;20554;-73
2022/08/25 05:35:33;;;;;;;8.82;5.05;;;18.70;99.90;;;;;;5071818;28;20489;-73
2022/08/25 05:37:58;;;;;;;7.95;5.20;;;18.60;99.90;;;;;;5071691;28;20058;-73
2022/08/25 05:40:24;;;;;;;11.95;5.25;;;18.70;99.90;;;;;;5069939;28;20067;-73
2022/08/25 05:42:50;;;;;;;8.48;5.43;;;18.70;99.90;;;;;;5071859;28;20036;-73
2022/08/25 05:45:16;;;;;;;7.70;5.07;;;18.80;99.90;;;;;;5071965;28;20428;-75
2022/08/25 05:47:42;;;;;;;7.30;5.13;;;18.70;99.90;;;;;;5070847;28;20466;-73
2022/08/25 05:50:09;;;;;;;7.00;4.43;;;18.70;99.90;;;;;;5071405;28;20080;-73
2022/08/25 05:52:34;;;;;;;10.95;4.60;;;18.70;99.90;;;;;;5071792;28;20049;-73
2022/08/25 05:55:00;;;;;;;8.40;4.30;;;18.80;99.90;;;;;;5070871;28;20043;-73
2022/08/25 05:57:26;;;;;;;7.68;3.95;;;18.80;99.90;;;;;;5071415;28;20115;-72
2022/08/25 05:59:51;;;;;;;4.68;4.22;;;18.80;99.90;;;;;;5070636;28;20047;-73
2022/08/25 06:05:02;;;;;;;9.35;4.57;;;18.90;99.90;;;;;;5071358;28;20097;-72
2022/08/25 06:07:28;;;;;;;9.63;4.53;;;18.90;99.90;;;;;;5070447;28;20044;-72
2022/08/25 06:09:54;;;;;;;6.45;3.90;;;19.00;99.90;;;;;;5069956;28;20644;-73
2022/08/25 06:12:20;;;;;;;6.40;3.72;;;19.00;99.90;;;;;;5070393;28;20044;-73
2022/08/25 06:14:47;;;;;;;11.07;4.60;;;19.00;99.90;;;;;;5070848;28;20071;-73
2022/08/25 06:17:12;;;;;;;11.45;4.05;;;20.10;99.90;;;;;;5069596;28;20049;-74
2022/08/25 06:19:38;;;;;;;5.65;4.22;;;19.10;99.90;;;;;;5071108;28;20043;-74
2022/08/25 06:22:04;;;;;;;9.63;3.88;;;19.40;99.90;;;;;;5069415;28;20102;-73
2022/08/25 06:24:29;;;;;;;7.20;4.15;;;19.20;99.90;;;;;;5070063;28;20071;-73
2022/08/25 06:26:55;;;;;;;5.82;4.40;;;19.20;99.90;;;;;;5070698;28;20028;-73
2022/08/25 06:29:21;;;;;;;5.63;3.95;;;19.30;99.90;;;;;;5070371;28;20083;-74
2022/08/25 06:31:48;;;;;;;6.53;4.20;;;19.30;99.90;;;;;;5071260;28;20480;-73
2022/08/25 06:34:15;;;;;;;4.32;3.25;;;19.30;99.90;;;;;;5070924;28;20044;-73
2022/08/25 06:36:41;;;;;;;7.03;3.67;;;19.40;99.90;;;;;;5070173;28;20486;-74
2022/08/25 06:39:07;;;;;;;5.50;3.63;;;19.50;99.90;;;;;;5071140;28;20045;-74
2022/08/25 06:41:34;;;;;;;5.82;3.88;;;19.50;99.90;;;;;;5071536;28;20473;-74
2022/08/25 06:44:00;;;;;;;9.93;3.75;;;19.50;99.90;;;;;;5070427;28;20036;-73
2022/08/25 06:46:28;;;;;;;9.90;3.95;;;19.60;99.90;;;;;;5070785;28;20044;-74
2022/08/25 06:48:55;;;;;;;4.70;3.88;;;19.70;99.90;;;;;;5070701;28;20400;-74
2022/08/25 06:51:23;;;;;;;6.40;3.83;;;19.70;99.90;;;;;;5070396;28;20052;-73
2022/08/25 06:53:49;;;;;;;7.55;5.05;;;19.80;99.90;;;;;;5071156;28;20052;-72
2022/08/25 06:56:16;;;;;;;6.80;3.85;;;19.80;99.90;;;;;;5069918;28;20503;-73
2022/08/25 06:58:42;;;;;;;5.78;3.30;;;19.90;99.90;;;;;;5070740;28;20051;-73
2022/08/25 07:01:14;;;;;;;10.23;4.38;;;20.40;99.90;;;;;;5069684;28;20044;-74
2022/08/25 07:03:40;;;;;;;7.25;3.67;;;20.00;99.90;;;;;;5070022;28;20041;-74
2022/08/25 07:06:06;;;;;;;8.25;3.45;;;20.00;99.90;;;;;;5070682;28;20553;-73
2022/08/25 07:08:33;;;;;;;8.00;4.45;;;20.30;99.90;;;;;;5070786;28;20041;-74
2022/08/25 07:11:04;;;;;;;4.78;3.35;;;20.20;99.90;;;;;;5070499;28;20079;-74
2022/08/25 07:13:30;;;;;;;7.93;4.05;;;20.30;99.90;;;;;;5063104;28;20045;-73
2022/08/25 07:15:56;;;;;;;5.53;3.55;;;20.30;99.90;;;;;;5069444;28;20083;-74
2022/08/25 07:18:22;;;;;;;8.20;3.65;;;20.40;99.90;;;;;;5069565;28;20072;-73
2022/08/25 07:20:47;;;;;;;6.47;3.50;;;20.50;99.90;;;;;;5070751;28;20115;-73
2022/08/25 07:23:13;;;;;;;4.07;3.67;;;20.60;99.90;;;;;;5052792;28;20047;-73
2022/08/25 07:25:39;;;;;;;8.40;3.30;;;20.60;99.90;;;;;;5052121;28;20043;-73
2022/08/25 07:28:04;;;;;;;9.63;4.43;;;20.70;99.90;;;;;;5070221;28;20057;-74
2022/08/25 07:30:31;;;;;;;5.00;3.50;;;20.70;99.90;;;;;;5067780;28;20040;-72
2022/08/25 07:32:57;;;;;;;3.78;3.47;;;20.90;99.90;;;;;;5070533;28;20072;-73
2022/08/25 07:35:24;;;;;;;9.35;4.05;;;21.00;99.90;;;;;;5069158;28;20076;-72
2022/08/25 07:37:57;;;;;;;9.45;4.00;;;21.00;99.90;;;;;;5069740;28;20056;-73
2022/08/25 07:40:26;;;;;;;8.73;3.60;;;21.70;99.90;;;;;;5070406;28;20111;-73
2022/08/25 07:42:56;;;;;;;9.05;3.88;;;21.20;99.90;;;;;;5070899;28;20271;-73
2022/08/25 07:45:28;;;;;;;4.40;3.58;;;21.30;99.90;;;;;;5069589;28;20126;-74
2022/08/25 07:48:05;;;;;;;5.82;4.03;;;21.40;99.90;;;;;;5070535;28;20055;-74
2022/08/25 07:50:31;;;;;;;8.50;3.78;;;21.40;99.90;;;;;;5073273;28;20044;-74
2022/08/25 07:52:57;;;;;;;4.72;3.13;;;21.50;99.90;;;;;;5074072;28;20032;-74
2022/08/25 07:55:25;;;;;;;4.75;3.33;;;22.00;99.90;;;;;;5073726;28;20040;-74
2022/08/25 07:57:51;;;;;;;6.15;3.08;;;21.70;99.90;;;;;;5072873;28;20532;-73
2022/08/25 08:00:18;;;;;;;5.30;3.60;;;21.80;99.90;;;;;;5073621;28;20041;-73
2022/08/25 08:02:44;;;;;;;4.82;3.30;;;21.90;99.90;;;;;;5073834;28;20037;-73
2022/08/25 08:05:12;;;;;;;9.55;3.80;;;22.00;99.90;;;;;;5071683;28;20052;-72
2022/08/25 08:07:38;;;;;;;7.22;3.60;;;22.00;99.90;;;;;;5073171;28;20051;-72
2022/08/25 08:10:06;;;;;;;7.25;3.95;;;22.10;99.90;;;;;;5073480;28;20036;-72
2022/08/25 08:12:33;;;;;;;7.68;3.97;;;22.20;99.90;;;;;;5073061;28;20051;-72
2022/08/25 08:14:59;;;;;;;4.88;3.22;;;22.20;99.90;;;;;;5073548;28;20040;-72
2022/08/25 08:17:25;;;;;;;6.85;3.70;;;22.30;99.90;;;;;;5073094;28;20127;-72
2022/08/25 08:19:50;;;;;;;6.97;4.03;;;22.30;99.90;;;;;;5072887;28;20036;-72
2022/08/25 08:22:17;;;;;;;6.57;3.30;;;22.40;99.90;;;;;;5073526;28;20090;-72
2022/08/25 08:24:44;;;;;;;5.25;3.50;;;22.50;99.90;;;;;;5073530;28;20048;-73
2022/08/25 08:27:11;;;;;;;5.97;4.28;;;22.60;99.90;;;;;;5072117;28;20514;-73
2022/08/25 08:29:38;;;;;;;7.53;3.35;;;22.70;99.90;;;;;;5071800;28;20484;-73
2022/08/25 08:32:05;;;;;;;4.72;3.10;;;22.80;99.90;;;;;;5073146;28;20108;-73
2022/08/25 08:34:32;;;;;;;7.22;3.50;;;22.90;99.90;;;;;;5072756;28;20044;-73
2022/08/25 08:36:58;;;;;;;9.07;3.95;;;23.30;99.90;;;;;;5073073;28;20033;-74
2022/08/25 08:39:24;;;;;;;11.38;3.95;;;23.10;99.90;;;;;;5072998;28;20079;-74
2022/08/25 08:42:21;;;;;;;7.60;3.58;;;23.10;99.90;;;;;;5072472;28;20048;-73
2022/08/25 08:45:14;;;;;;;7.45;3.47;;;23.20;99.90;;;;;;5065243;28;20080;-74
2022/08/25 08:47:48;;;;;;;6.17;3.67;;;23.40;99.90;;;;;;5064386;28;20044;-73
2022/08/25 08:50:22;;;;;;;8.90;5.00;;;23.50;99.90;;;;;;5072677;28;20052;-73
2022/08/25 08:53:13;;;;;;;5.38;3.22;;;23.60;99.90;;;;;;5072848;28;20040;-72
2022/08/25 08:55:47;;;;;;;7.22;3.55;;;23.60;99.90;;;;;;5064283;28;20039;-74
2022/08/25 08:58:17;;;;;;;;;;;23.70;99.90;;;;;;5072768;28;20060;-74
2022/08/25 09:00:49;;;;;;;7.13;3.65;;;23.80;99.90;;;;;;5072624;28;20011;-73
2022/08/25 09:03:48;;;;;;;7.43;2.78;;;24.00;99.90;;;;;;5073405;28;20041;-74
2022/08/25 09:06:22;;;;;;;4.78;2.65;;;24.10;99.90;;;;;;5072518;28;20036;-74
2022/08/25 09:08:49;;;;;;;5.43;2.88;;;24.20;99.90;;;;;;5046954;28;20131;-74
2022/08/25 09:11:45;;;;;;;4.50;2.47;;;24.30;99.90;;;;;;5072420;28;20432;-74
2022/08/25 09:14:49;;;;;;;7.82;3.13;;;24.40;99.90;;;;;;5072536;28;20036;-74
2022/08/25 09:17:35;;;;;;;5.20;2.70;;;24.50;99.90;;;;;;5056344;28;20049;-74
2022/08/25 09:20:34;;;;;;;7.55;2.35;;;24.60;99.90;;;;;;5065566;28;20036;-74
2022/08/25 09:23:03;;;;;;;3.97;2.63;;;24.90;99.90;;;;;;5071751;28;20503;-74
2022/08/25 09:25:44;;;;;;;6.47;2.88;;;24.80;99.90;;;;;;5072071;28;20036;-73
2022/08/25 09:28:22;;;;;;;5.97;2.95;;;24.90;99.90;;;;;;5071638;28;20054;-73
2022/08/25 09:30:58;;;;;;;7.25;2.15;;;25.00;99.90;;;;;;5064325;28;20055;-75
2022/08/25 09:33:26;;;;;;;7.38;2.30;;;25.10;99.90;;;;;;5072137;28;20154;-73
2022/08/25 09:35:55;;;;;;;6.38;2.17;;;25.20;99.90;;;;;;5070744;28;20049;-75
2022/08/25 09:38:21;;;;;;;8.02;2.20;;;25.40;99.90;;;;;;5070196;28;20032;-72
2022/08/25 09:40:54;;;;;;;4.32;2.22;;;25.50;99.90;;;;;;5071994;28;20070;-73
2022/08/25 09:43:23;;;;;;;4.60;2.53;;;25.60;99.90;;;;;;5070894;28;20040;-73
2022/08/25 09:46:09;;;;;;;8.23;2.35;;;25.70;99.90;;;;;;5072016;28;20439;-73
2022/08/25 09:48:41;;;;;;;3.60;2.15;;;25.80;99.90;;;;;;5071681;28;20044;-75
2022/08/25 09:51:38;;;;;;;4.65;2.20;;;25.90;99.90;;;;;;5070989;28;20288;-72
2022/08/25 09:54:16;;;;;;;5.43;2.38;;;25.90;99.90;;;;;;5065029;28;20124;-73
2022/08/25 09:57:00;;;;;;;5.00;2.20;;;26.00;99.90;;;;;;5072301;28;20056;-72
2022/08/25 09:59:28;;;;;;;3.15;2.03;;;26.10;99.50;;;;;;5070838;28;20040;-73
2022/08/25 10:01:56;;;;;;;2.30;1.70;;;26.30;99.60;;;;;;5070465;28;20045;-72
2022/08/25 10:04:31;;;;;;;2.88;2.00;;;26.30;99.20;;;;;;5070733;28;20111;-73
2022/08/25 10:06:58;;;;;;;3.33;1.80;;;26.40;98.80;;;;;;5071315;28;20040;-73
2022/08/25 10:09:38;;;;;;;5.10;1.90;;;26.50;98.60;;;;;;5071294;28;20045;-73
2022/08/25 10:12:19;;;;;;;6.22;1.80;;;26.50;98.00;;;;;;5070262;28;20499;-73
2022/08/25 10:14:45;;;;;;;8.32;2.15;;;26.50;98.20;;;;;;5069912;28;20365;-73
2022/08/25 10:17:15;;;;;;;3.75;1.63;;;26.40;97.70;;;;;;5070096;28;20378;-73
2022/08/25 10:19:42;;;;;;;5.22;1.63;;;26.70;97.40;;;;;;5069267;28;20105;-73
2022/08/25 10:22:11;;;;;;;5.13;1.65;;;26.90;97.30;;;;;;5071143;28;20048;-74
2022/08/25 10:24:39;;;;;;;4.57;1.90;;;26.90;96.40;;;;;;5071131;28;20040;-73
2022/08/25 10:27:19;;;;;;;2.33;1.80;;;27.00;96.60;;;;;;5069877;28;20480;-73
2022/08/25 10:30:16;;;;;;;4.72;1.85;;;27.10;96.60;;;;;;5071319;28;20080;-73
2022/08/25 10:32:48;;;;;;;8.38;1.90;;;27.20;96.70;;;;;;5069106;28;20056;-72
2022/08/25 10:35:29;;;;;;;4.95;1.50;;;27.30;95.80;;;;;;5071289;28;20052;-73
2022/08/25 10:38:33;;;;;;;3.85;1.90;;;27.40;95.80;;;;;;5063531;28;20377;-73
2022/08/25 10:41:25;;;;;;;4.05;1.70;;;27.30;95.30;;;;;;5063087;28;20044;-73
2022/08/25 10:47:25;;;;;;;4.45;1.70;;;27.50;94.60;;;;;;5064007;28;20048;-73
2022/08/25 10:50:01;;;;;;;3.85;1.90;;;27.60;94.30;;;;;;5061048;28;20091;-73
2022/08/25 10:52:56;;;;;;;3.90;1.60;;;27.70;94.00;;;;;;5070825;28;20044;-74
2022/08/25 10:55:35;;;;;;;3.58;2.00;;;27.80;94.60;;;;;;5070476;28;20045;-72
2022/08/25 10:58:21;;;;;;;2.50;2.00;;;27.90;94.10;;;;;;5063868;28;20090;-74
2022/08/25 11:00:58;;;;;;;4.15;1.63;;;28.10;93.80;;;;;;5070232;28;20488;-75
2022/08/25 11:03:52;;;;;;;2.53;1.45;;;28.00;93.10;;;;;;5071089;28;20055;-73
2022/08/25 11:06:41;;;;;;;3.00;1.67;;;28.10;92.80;;;;;;5065784;28;20048;-75
2022/08/25 11:09:11;;;;;;;4.45;1.92;;;28.20;93.00;;;;;;5063499;28;20053;-73
2022/08/25 11:11:45;;;;;;;8.38;5.32;;;28.40;93.10;;;;;;5070797;28;20438;-74
2022/08/25 11:14:37;;;;;;;3.13;1.60;;;28.40;93.20;;;;;;5070854;28;20051;-73
2022/08/25 11:17:23;;;;;;;5.32;1.92;;;28.50;92.90;;;;;;5059185;28;20146;-73
2022/08/25 11:19:53;;;;;;;5.45;1.73;;;28.70;92.90;;;;;;5052343;28;20044;-73
2022/08/25 11:22:42;;;;;;;4.05;1.73;;;28.90;92.10;;;;;;5072096;28;20037;-74
2022/08/25 11:25:10;;;;;;;3.53;1.58;;;28.80;92.10;;;;;;5067845;28;20435;-73
2022/08/25 11:27:40;;;;;;;2.63;1.88;;;29.10;92.10;;;;;;5072768;28;20076;-73
2022/08/25 11:30:12;;;;;;;9.73;1.48;;;29.00;91.00;;;;;;5073497;28;20105;-74
2022/08/25 11:32:39;;;;;;;4.13;2.33;;;29.10;90.60;;;;;;5074188;28;20032;-73
2022/08/25 11:35:11;;;;;;;4.25;1.60;;;29.20;90.60;;;;;;5073170;28;20051;-74
2022/08/25 11:38:11;;;;;;;5.22;2.08;;;29.30;90.10;;;;;;5073273;28;20045;-74
2022/08/25 11:41:04;;;;;;;3.83;1.58;;;29.40;90.30;;;;;;5074625;28;20036;-74
2022/08/25 11:43:56;;;;;;;2.78;1.80;;;29.50;89.70;;;;;;5073815;28;20432;-74
2022/08/25 11:47:09;;;;;;;1.70;1.60;;;29.70;90.20;;;;;;5068728;28;20516;-75
2022/08/25 11:49:59;;;;;;;5.43;1.40;;;29.80;87.30;;;;;;5049794;28;20136;-75
2022/08/25 11:52:48;;;;;;;3.58;1.63;;;29.90;87.70;;;;;;5073986;28;20044;-76
2022/08/25 11:55:19;;;;;;;6.85;1.50;;;29.90;86.60;;;;;;5067948;28;20036;-74
2022/08/25 11:57:47;;;;;;;6.13;1.42;;;30.00;87.70;;;;;;5072769;28;20185;-75
2022/08/25 12:00:40;;;;;;;4.20;1.80;;;30.00;85.30;;;;;;5073853;28;20418;-75
2022/08/25 12:03:31;;;;;;;2.38;1.88;;;30.10;86.40;;;;;;5066512;28;20040;-75
2022/08/25 12:06:30;;;;;;;1.60;1.50;;;30.30;86.40;;;;;;5057656;28;20148;-75
2022/08/25 12:08:59;;;;;;;3.80;1.67;;;30.40;84.30;;;;;;5072719;28;20044;-75
2022/08/25 12:11:36;;;;;;;4.70;1.75;;;30.50;83.50;;;;;;5072919;28;20033;-73
2022/08/25 12:14:25;;;;;;;3.28;1.48;;;30.50;82.70;;;;;;5047433;28;20439;-73
2022/08/25 12:16:52;;;;;;;2.65;1.52;;;30.60;83.90;;;;;;5071959;28;20508;-74
2022/08/25 12:19:35;;;;;;;4.00;1.40;;;30.80;83.00;;;;;;5072928;28;20045;-75
2022/08/25 12:22:01;;;;;;;5.57;1.73;;;30.90;83.10;;;;;;5073509;28;20042;-72
2022/08/25 12:24:42;;;;;;;7.07;1.60;;;31.00;82.10;;;;;;5073442;28;20135;-74
2022/08/25 12:27:32;;;;;;;3.95;1.65;;;31.10;81.90;;;;;;5063315;28;20044;-73
2022/08/25 12:30:12;;;;;;;4.13;2.17;;;31.10;81.70;;;;;;5072019;28;21004;-75
2022/08/25 12:33:06;;;;;;;6.80;1.80;;;31.20;80.90;;;;;;5072656;28;20048;-73
2022/08/25 12:35:39;;;;;;;4.78;1.40;;;31.20;78.60;;;;;;5069060;28;20033;-72
2022/08/25 12:38:14;;;;;;;4.60;1.73;;;31.40;80.10;;;;;;5065260;28;20441;-72
2022/08/25 12:40:42;;;;;;;6.78;1.70;;;31.40;79.60;;;;;;5072569;28;20115;-73
2022/08/25 12:43:30;;;;;;;3.90;1.67;;;31.50;80.50;;;;;;5073071;28;20064;-73
2022/08/25 12:46:28;;;;;;;2.60;1.52;;;31.50;79.60;;;;;;5071548;28;20048;-72
2022/08/25 12:49:42;;;;;;;6.10;1.98;;;31.60;79.20;;;;;;5071715;28;20048;-73
2022/08/25 12:52:24;;;;;;;4.22;1.70;;;31.60;78.40;;;;;;5059953;28;20123;-74
2022/08/25 12:54:57;;;;;;;2.20;1.83;;;31.70;78.70;;;;;;5072401;28;20047;-74
2022/08/25 12:57:44;;;;;;;3.65;1.80;;;31.80;78.20;;;;;;5072869;28;20036;-74
2022/08/25 13:00:34;;;;;;;3.55;1.50;;;31.90;76.20;;;;;;5072766;28;20528;-73
2022/08/25 13:03:16;;;;;;;1.80;1.50;;;31.90;74.90;;;;;;5072836;28;20049;-74
2022/08/25 13:06:00;;;;;;;2.60;1.95;;;31.80;75.10;;;;;;5072485;28;20122;-74
2022/08/25 13:08:45;;;;;;;6.22;1.83;;;31.80;75.90;;;;;;5066042;28;20093;-74
2022/08/25 13:11:37;;;;;;;3.88;1.67;;;31.90;75.70;;;;;;5064664;28;20048;-74
2022/08/25 13:14:21;;;;;;;4.55;1.90;;;31.80;75.10;;;;;;5070714;28;20106;-73